Terminal Aerodrome Forecast
Issued by NWS Billings, MT

Home | Current Version | Previous Version | Text Only | Print | Product List | Glossary On
Versions: 1 2 3 4 5 6 7 8 9 10 11 12 13 14 15 16 17 18 19 20 21 22 23 24 25 26 27 28 29 30 31 32 33 34
000
FTUS45 KBYZ 030722 AAA
TAFBIL
TAF AMD
KBIL 030722Z 0307/0406 02015KT 3SM -SN BR FEW008 SCT014 OVC035
      TEMPO 0307/0310 1SM -SN BR BKN008
     FM031300 34016KT 5SM -SN BR SCT008 BKN035 OVC070
     FM031600 34011KT P6SM VCSH SCT030 SCT100
     FM040200 VRB05KT P6SM SKC=

USA.gov is the U.S. government's official web portal to all federal, state and local government web resources and services.